Time;durP1;ratioP1;P1;durP2;ratioP2;P2;SDS_P1;SDS_P2;PMS_P1;PMS_P2;Temp;Humidity;BMP_temperature;BMP_pressure;BME280_temperature;BME280_humidity;BME280_pressure;Samples;Min_cycle;Max_cycle;Signal;HPM_P1;HPM_P2
2021/07/31 00:01:53;;;;;;;6.32;2.97;;;;;;;16.12;89.51;100439.66;5286835;28;20048;-66
2021/07/31 00:04:25;;;;;;;7.47;2.65;;;;;;;16.10;89.91;100449.59;5283254;28;20446;-66
2021/07/31 00:06:56;;;;;;;12.07;3.17;;;;;;;16.10;89.85;100440.81;5266806;28;20485;-65
2021/07/31 00:09:27;;;;;;;7.63;2.67;;;;;;;16.09;89.99;100445.28;5284803;28;20074;-66
2021/07/31 00:11:58;;;;;;;10.95;2.53;;;;;;;16.14;89.80;100445.59;5283254;28;20060;-65
2021/07/31 00:14:31;;;;;;;6.70;2.33;;;;;;;16.18;89.93;100454.00;5282447;28;20048;-65
2021/07/31 00:17:06;;;;;;;8.27;2.90;;;;;;;16.19;89.97;100440.59;5286501;28;20058;-66
2021/07/31 00:19:37;;;;;;;9.82;2.70;;;;;;;16.21;90.13;100445.69;5284071;28;20040;-65
2021/07/31 00:22:08;;;;;;;9.23;2.90;;;;;;;16.22;90.12;100442.06;5286655;28;20090;-65
2021/07/31 00:24:39;;;;;;;9.45;2.58;;;;;;;16.19;90.00;100447.72;5282170;28;20050;-66
2021/07/31 00:27:11;;;;;;;8.43;2.80;;;;;;;16.24;90.24;100438.22;5287102;28;20081;-65
2021/07/31 00:29:42;;;;;;;10.50;2.58;;;;;;;16.25;90.01;100447.81;5285402;28;20297;-66
2021/07/31 00:32:14;;;;;;;8.60;2.58;;;;;;;16.25;90.07;100452.25;5284571;28;20099;-66
2021/07/31 00:34:45;;;;;;;6.05;2.63;;;;;;;16.24;90.06;100443.53;5285036;28;20088;-66
2021/07/31 00:37:16;;;;;;;8.50;2.67;;;;;;;16.19;90.30;100435.31;5284322;28;20038;-66
2021/07/31 00:39:47;;;;;;;8.85;3.00;;;;;;;16.16;90.54;100432.19;5262647;28;20032;-66
2021/07/31 00:42:19;;;;;;;8.82;2.85;;;;;;;16.11;90.86;100435.38;5285158;28;20027;-65
2021/07/31 00:44:50;;;;;;;10.02;2.85;;;;;;;16.07;91.00;100442.00;5286852;28;20039;-66
2021/07/31 00:47:22;;;;;;;8.32;3.40;;;;;;;16.02;91.28;100431.97;5284827;28;20025;-65
2021/07/31 00:49:53;;;;;;;11.00;2.70;;;;;;;15.99;91.61;100447.34;5283424;28;20069;-66
2021/07/31 00:52:25;;;;;;;9.30;3.20;;;;;;;15.97;92.01;100438.75;5285585;28;20031;-66
2021/07/31 00:54:58;;;;;;;6.20;2.35;;;;;;;15.97;91.91;100444.06;5282379;28;20115;-65
2021/07/31 00:57:30;;;;;;;8.43;2.70;;;;;;;15.98;92.34;100443.03;5285869;28;20043;-65
2021/07/31 01:00:03;;;;;;;10.52;2.88;;;;;;;16.02;92.10;100452.25;5282005;28;20081;-66
2021/07/31 01:02:35;;;;;;;9.80;2.83;;;;;;;16.03;92.07;100440.72;5284331;28;20441;-65
2021/07/31 01:05:07;;;;;;;7.88;2.83;;;;;;;16.02;92.05;100434.63;5283612;28;20028;-66
2021/07/31 01:07:39;;;;;;;10.38;3.00;;;;;;;16.01;92.35;100445.34;5285104;28;20016;-65
2021/07/31 01:10:11;;;;;;;13.80;3.33;;;;;;;16.02;92.19;100439.06;5285099;28;20393;-66
2021/07/31 01:12:44;;;;;;;8.45;3.05;;;;;;;15.99;91.86;100439.44;5283510;28;20036;-66
2021/07/31 01:15:15;;;;;;;12.90;4.50;;;;;;;15.99;91.97;100445.53;5283386;28;20024;-65
2021/07/31 01:17:47;;;;;;;10.57;2.97;;;;;;;15.98;92.12;100443.84;5286177;28;20535;-66
2021/07/31 01:20:18;;;;;;;8.03;2.97;;;;;;;16.00;92.13;100443.69;5284407;28;20059;-66
2021/07/31 01:22:50;;;;;;;9.35;3.38;;;;;;;15.98;92.19;100419.25;5285414;28;20293;-66
2021/07/31 01:25:21;;;;;;;9.70;3.00;;;;;;;15.96;91.62;100430.03;5284792;28;20035;-66
2021/07/31 01:27:52;;;;;;;10.15;3.13;;;;;;;15.93;91.80;100425.09;5284233;28;20024;-68
2021/07/31 01:30:24;;;;;;;11.45;3.30;;;;;;;15.91;91.91;100429.72;5280403;28;20051;-66
2021/07/31 01:32:55;;;;;;;9.98;2.80;;;;;;;15.86;92.07;100421.50;5284667;28;20032;-66
2021/07/31 01:35:26;;;;;;;9.15;3.08;;;;;;;15.82;92.31;100422.84;5284047;28;20094;-66
2021/07/31 01:37:57;;;;;;;10.90;3.08;;;;;;;15.79;92.68;100417.91;5268588;28;20024;-66
2021/07/31 01:40:29;;;;;;;13.32;3.47;;;;;;;15.80;92.62;100422.22;5283117;28;20075;-66
2021/07/31 01:43:00;;;;;;;12.82;2.72;;;;;;;15.79;92.79;100420.53;5282878;28;20082;-65
2021/07/31 01:45:32;;;;;;;12.95;3.05;;;;;;;15.78;92.91;100421.53;5284775;28;20032;-66
2021/07/31 01:48:03;;;;;;;9.60;3.13;;;;;;;15.76;93.23;100424.38;5283054;28;21074;-66
2021/07/31 01:50:35;;;;;;;12.13;3.83;;;;;;;15.78;93.41;100432.09;5285033;28;20136;-66
2021/07/31 01:53:06;;;;;;;8.93;2.60;;;;;;;15.79;93.52;100439.84;5286391;28;20036;-66
2021/07/31 01:55:38;;;;;;;11.32;3.38;;;;;;;15.85;93.68;100426.97;5266029;28;20038;-66
2021/07/31 01:58:09;;;;;;;8.25;2.60;;;;;;;15.88;93.67;100435.38;5284020;28;20043;-66
2021/07/31 02:00:40;;;;;;;12.68;3.55;;;;;;;15.89;93.81;100444.09;5280111;28;20094;-66
2021/07/31 02:03:12;;;;;;;7.95;3.20;;;;;;;15.89;94.08;100442.28;5282888;28;20968;-66
2021/07/31 02:05:43;;;;;;;11.40;2.97;;;;;;;15.88;93.96;100442.47;5283178;28;20033;-66
2021/07/31 02:08:15;;;;;;;9.45;3.33;;;;;;;15.85;93.99;100440.16;5283592;28;20028;-66
2021/07/31 02:10:46;;;;;;;12.65;3.05;;;;;;;15.81;94.26;100440.50;5283781;28;20066;-66
2021/07/31 02:13:18;;;;;;;6.60;2.70;;;;;;;15.78;94.36;100424.19;5283225;28;20035;-66
2021/07/31 02:15:49;;;;;;;8.05;3.53;;;;;;;15.82;94.71;100433.41;5280799;28;20095;-66
2021/07/31 02:18:20;;;;;;;12.40;3.85;;;;;;;15.82;94.72;100433.41;5283999;28;20023;-66
2021/07/31 02:20:51;;;;;;;12.10;4.00;;;;;;;15.82;94.86;100423.66;5282363;28;20055;-66
2021/07/31 02:23:23;;;;;;;11.07;3.10;;;;;;;15.85;94.58;100432.25;5284328;28;20081;-66
2021/07/31 02:25:54;;;;;;;10.45;3.10;;;;;;;15.79;94.73;100413.44;5281583;28;20381;-65
2021/07/31 02:28:26;;;;;;;11.65;3.38;;;;;;;15.84;94.62;100423.50;5282125;28;20497;-65
2021/07/31 02:30:57;;;;;;;9.68;3.75;;;;;;;15.87;94.96;100432.88;5281814;28;20022;-66
2021/07/31 02:33:29;;;;;;;11.10;3.30;;;;;;;15.89;94.85;100422.97;5285328;28;20501;-66
2021/07/31 02:36:04;;;;;;;5.38;2.72;;;;;;;15.86;95.07;100420.66;5282893;28;20027;-66
2021/07/31 02:38:37;;;;;;;8.63;2.88;;;;;;;15.87;94.86;100424.94;5283638;28;20115;-66
2021/07/31 02:41:08;;;;;;;8.82;3.00;;;;;;;15.89;94.77;100437.00;5280569;28;20039;-65
2021/07/31 02:43:39;;;;;;;10.27;3.20;;;;;;;15.89;94.47;100428.25;5286034;28;20040;-66
2021/07/31 02:46:11;;;;;;;9.85;2.92;;;;;;;15.89;94.39;100429.06;5288012;28;20051;-66
2021/07/31 02:48:42;;;;;;;8.00;2.63;;;;;;;15.90;94.68;100421.97;5288980;28;20020;-65
2021/07/31 02:51:13;;;;;;;11.43;3.05;;;;;;;15.88;94.46;100416.88;5286988;28;20446;-66
2021/07/31 02:53:45;;;;;;;8.02;3.10;;;;;;;15.94;94.17;100415.31;5288655;28;20051;-65
2021/07/31 02:56:16;;;;;;;8.88;3.40;;;;;;;15.95;94.27;100427.56;5287380;28;20039;-66
2021/07/31 02:58:47;;;;;;;11.63;3.28;;;;;;;15.92;94.33;100422.63;5286544;28;20039;-66
2021/07/31 03:01:18;;;;;;;9.13;3.35;;;;;;;15.93;94.06;100422.44;5287114;28;20062;-65
2021/07/31 03:03:50;;;;;;;10.50;3.00;;;;;;;15.95;94.31;100422.28;5285595;28;20040;-65
2021/07/31 03:06:21;;;;;;;7.45;3.30;;;;;;;15.95;94.25;100422.28;5289596;28;20081;-65
2021/07/31 03:08:52;;;;;;;8.68;3.30;;;;;;;15.92;94.27;100414.69;5285345;28;20384;-66
2021/07/31 03:11:24;;;;;;;9.03;3.37;;;;;;;15.95;94.24;100422.28;5286196;28;20029;-66
2021/07/31 03:13:55;;;;;;;11.35;3.58;;;;;;;15.94;94.42;100423.25;5285216;28;20313;-66
2021/07/31 03:16:26;;;;;;;6.97;2.88;;;;;;;15.94;94.15;100423.25;5288570;28;20536;-66
2021/07/31 03:18:57;;;;;;;10.50;3.72;;;;;;;15.95;94.21;100422.28;5286618;28;20550;-66
2021/07/31 03:21:29;;;;;;;10.27;3.88;;;;;;;15.94;93.99;100420.63;5284864;28;20075;-66
2021/07/31 03:24:00;;;;;;;8.30;2.88;;;;;;;15.94;94.31;100417.97;5286543;28;20253;-66
2021/07/31 03:26:31;;;;;;;8.05;3.58;;;;;;;15.94;94.24;100421.44;5266802;28;20028;-66
2021/07/31 03:29:03;;;;;;;9.98;2.92;;;;;;;15.92;94.74;100417.34;5287613;28;20135;-66
2021/07/31 03:31:34;;;;;;;9.75;3.03;;;;;;;15.94;94.54;100412.69;5287520;28;20017;-66
2021/07/31 03:34:05;;;;;;;9.85;2.90;;;;;;;15.93;94.69;100421.63;5287463;28;20495;-66
2021/07/31 03:36:36;;;;;;;8.40;3.08;;;;;;;15.89;94.46;100422.97;5289278;28;20614;-66
2021/07/31 03:39:08;;;;;;;10.57;3.13;;;;;;;15.88;94.78;100421.34;5281227;28;20501;-66
2021/07/31 03:41:39;;;;;;;6.90;3.10;;;;;;;15.87;95.47;100424.94;5288558;28;20837;-66
2021/07/31 03:44:10;;;;;;;11.70;3.07;;;;;;;15.82;96.08;100431.59;5286203;28;20485;-66
2021/07/31 03:46:45;;;;;;;9.10;3.10;;;;;;;15.80;96.87;100424.84;5288203;28;20267;-66
2021/07/31 03:49:17;;;;;;;6.72;2.97;;;;;;;15.77;98.34;100430.47;5284747;28;20036;-66
2021/07/31 03:51:52;;;;;;;8.45;2.95;;;;;;;15.76;99.86;100437.56;5284812;28;20500;-66
2021/07/31 03:54:23;;;;;;;12.90;3.35;;;;;;;15.68;100.00;100461.41;5286266;28;20500;-66
2021/07/31 03:56:55;;;;;;;7.95;3.80;;;;;;;15.60;100.00;100457.91;5282437;28;20028;-66
2021/07/31 03:59:26;;;;;;;9.68;3.65;;;;;;;15.52;100.00;100459.59;5285263;28;20040;-65
2021/07/31 04:01:57;;;;;;;8.05;2.70;;;;;;;15.48;100.00;100468.84;5284269;28;20039;-65
2021/07/31 04:04:28;;;;;;;10.75;3.65;;;;;;;15.43;100.00;100467.75;5265650;28;20043;-65
2021/07/31 04:07:00;;;;;;;7.13;3.50;;;;;;;15.42;100.00;100466.91;5285078;28;20047;-65
2021/07/31 04:09:31;;;;;;;10.32;3.78;;;;;;;15.37;100.00;100471.03;5288380;28;20028;-65
2021/07/31 04:12:03;;;;;;;10.38;3.90;;;;;;;15.31;100.00;100470.75;5284639;28;20028;-65
2021/07/31 04:14:34;;;;;;;6.38;3.15;;;;;;;15.26;100.00;100470.41;5282965;28;20062;-65
2021/07/31 04:17:05;;;;;;;10.85;4.43;;;;;;;15.24;100.00;100469.78;5285966;28;20347;-65
2021/07/31 04:19:37;;;;;;;9.82;4.57;;;;;;;15.22;100.00;100468.28;5284402;28;20086;-65
2021/07/31 04:22:08;;;;;;;7.28;3.67;;;;;;;15.16;100.00;100458.44;5284284;28;20059;-65
2021/07/31 04:24:40;;;;;;;7.57;4.03;;;;;;;15.16;100.00;100471.63;5283978;28;20034;-66
2021/07/31 04:27:11;;;;;;;5.93;3.40;;;;;;;15.17;100.00;100473.25;5285316;28;20025;-65
2021/07/31 04:29:42;;;;;;;10.45;4.13;;;;;;;15.16;100.00;100482.19;5283605;28;20099;-65
2021/07/31 04:32:14;;;;;;;9.73;4.10;;;;;;;15.17;100.00;100475.91;5283831;28;20024;-65
2021/07/31 04:34:45;;;;;;;9.93;4.60;;;;;;;15.16;100.00;100475.09;5287316;28;20020;-66
2021/07/31 04:37:16;;;;;;;10.45;4.35;;;;;;;15.19;100.00;100474.75;5284947;28;20098;-65
2021/07/31 04:39:47;;;;;;;9.00;4.03;;;;;;;15.16;100.00;100469.81;5282911;28;20081;-65
2021/07/31 04:42:19;;;;;;;10.25;4.45;;;;;;;15.17;100.00;100482.00;5285848;28;20028;-65
2021/07/31 04:44:50;;;;;;;10.35;4.50;;;;;;;15.15;100.00;100475.22;5284365;28;20044;-65
2021/07/31 04:47:24;;;;;;;8.55;4.32;;;;;;;15.12;100.00;100484.31;5282058;28;20020;-65
2021/07/31 04:49:55;;;;;;;8.18;4.28;;;;;;;15.12;100.00;100479.03;5284090;28;20031;-65
2021/07/31 04:52:26;;;;;;;11.30;4.20;;;;;;;15.15;100.00;100489.25;5283628;28;20397;-65
2021/07/31 04:54:58;;;;;;;8.68;4.70;;;;;;;15.15;100.00;100489.25;5284300;28;20051;-64
2021/07/31 04:57:29;;;;;;;10.85;4.18;;;;;;;15.14;100.00;100489.41;5285167;28;20028;-65
2021/07/31 05:00:00;;;;;;;10.98;5.07;;;;;;;15.14;100.00;100495.53;5283556;28;20028;-65
2021/07/31 05:02:32;;;;;;;11.57;5.18;;;;;;;15.19;100.00;100498.50;5284863;28;20028;-65
2021/07/31 05:05:04;;;;;;;8.27;4.40;;;;;;;15.19;100.00;100501.13;5284468;28;20275;-65
2021/07/31 05:07:35;;;;;;;10.15;4.65;;;;;;;15.17;100.00;100505.75;5282726;28;20114;-65
2021/07/31 05:10:07;;;;;;;8.02;4.10;;;;;;;15.22;100.00;100510.50;5283292;28;20665;-65
2021/07/31 05:12:38;;;;;;;10.65;5.05;;;;;;;15.24;100.00;100500.63;5282727;28;20102;-65
2021/07/31 05:15:09;;;;;;;8.63;4.85;;;;;;;15.23;100.00;100507.72;5285784;28;20113;-65
2021/07/31 05:17:41;;;;;;;8.82;5.10;;;;;;;15.25;100.00;100510.19;5285185;28;20020;-65
2021/07/31 05:20:12;;;;;;;12.87;5.53;;;;;;;15.24;100.00;100517.28;5286016;28;20064;-65
2021/07/31 05:22:43;;;;;;;9.57;5.38;;;;;;;15.23;100.00;100518.28;5283168;28;20294;-65
2021/07/31 05:25:15;;;;;;;9.77;5.00;;;;;;;15.26;100.00;100530.28;5284602;28;20136;-65
2021/07/31 05:27:46;;;;;;;8.82;5.00;;;;;;;15.29;100.00;100516.75;5286933;28;20024;-65
2021/07/31 05:30:17;;;;;;;10.82;5.38;;;;;;;15.32;100.00;100522.53;5284087;28;20060;-65
2021/07/31 05:32:49;;;;;;;15.60;5.03;;;;;;;15.33;100.00;100524.16;5284379;28;20099;-65
2021/07/31 05:35:20;;;;;;;10.38;5.35;;;;;;;15.35;100.00;100526.66;5283758;28;20039;-65
2021/07/31 05:37:52;;;;;;;9.25;5.13;;;;;;;15.40;100.00;100528.78;5285552;28;20038;-65
2021/07/31 05:40:23;;;;;;;9.05;4.65;;;;;;;15.41;100.00;100530.44;5280572;28;20042;-65
2021/07/31 05:42:54;;;;;;;8.80;4.90;;;;;;;15.43;100.00;100531.91;5285348;28;20473;-65
2021/07/31 05:45:26;;;;;;;9.60;5.05;;;;;;;15.45;100.00;100524.63;5284824;28;20239;-65
2021/07/31 05:47:59;;;;;;;10.32;5.50;;;;;;;15.44;100.00;100514.25;5283394;28;20020;-65
2021/07/31 05:50:30;;;;;;;10.05;5.55;;;;;;;15.48;100.00;100534.03;5282584;28;20024;-65
2021/07/31 05:53:01;;;;;;;9.85;5.38;;;;;;;15.44;100.00;100536.19;5285204;28;20097;-65
2021/07/31 05:55:32;;;;;;;8.68;4.75;;;;;;;15.47;100.00;100541.13;5284638;28;20032;-65
2021/07/31 05:58:04;;;;;;;7.40;5.10;;;;;;;15.53;100.00;100539.63;5281671;28;20028;-65
2021/07/31 06:00:36;;;;;;;11.03;6.00;;;;;;;15.58;100.00;100545.25;5284692;28;20045;-65
2021/07/31 06:03:07;;;;;;;9.55;5.60;;;;;;;15.64;100.00;100538.44;5273152;28;20028;-65
2021/07/31 06:05:38;;;;;;;8.57;4.97;;;;;;;15.64;100.00;100547.19;5283325;28;20023;-66
2021/07/31 06:08:09;;;;;;;10.80;5.57;;;;;;;15.65;100.00;100543.59;5282548;28;20077;-65
2021/07/31 06:10:41;;;;;;;8.90;5.30;;;;;;;15.65;100.00;100551.53;5281190;28;20031;-65
2021/07/31 06:13:12;;;;;;;10.40;5.30;;;;;;;15.68;100.00;100548.53;5283725;28;20040;-65
2021/07/31 06:15:43;;;;;;;8.63;5.03;;;;;;;15.71;100.00;100547.38;5280850;28;20591;-66
2021/07/31 06:18:14;;;;;;;10.23;5.20;;;;;;;15.75;100.00;100549.47;5281914;28;20504;-65
2021/07/31 06:20:46;;;;;;;11.32;5.72;;;;;;;15.75;100.00;100546.03;5284948;28;20135;-65
2021/07/31 06:23:18;;;;;;;10.63;5.68;;;;;;;15.77;100.00;100551.97;5287269;28;20027;-66
2021/07/31 06:25:49;;;;;;;12.10;5.90;;;;;;;15.77;100.00;100555.44;5284964;28;20077;-65
2021/07/31 06:28:20;;;;;;;11.18;5.50;;;;;;;15.75;100.00;100549.47;5284932;28;20432;-65
2021/07/31 06:30:52;;;;;;;11.50;5.20;;;;;;;15.75;100.00;100551.31;5288407;28;20658;-65
2021/07/31 06:33:23;;;;;;;8.77;5.25;;;;;;;15.76;100.00;100560.91;5286170;28;20292;-65
2021/07/31 06:35:54;;;;;;;10.90;5.78;;;;;;;15.78;100.00;100559.72;5287238;28;20062;-66
2021/07/31 06:38:25;;;;;;;11.30;5.37;;;;;;;15.80;100.00;100563.03;5285782;28;20032;-65
2021/07/31 06:40:57;;;;;;;10.00;5.18;;;;;;;15.78;100.00;100558.88;5287040;28;20315;-66
2021/07/31 06:43:29;;;;;;;12.65;5.90;;;;;;;15.85;100.00;100561.69;5287453;28;20047;-66
2021/07/31 06:46:14;;;;;;;15.13;5.63;;;;;;;15.93;100.00;100570.38;5285161;28;20058;-66
2021/07/31 06:48:46;;;;;;;8.20;4.70;;;;;;;16.00;100.00;100566.06;5286121;28;20116;-65
2021/07/31 06:51:19;;;;;;;13.05;5.18;;;;;;;16.09;100.00;100572.13;5286824;28;20024;-66
2021/07/31 06:53:51;;;;;;;8.15;5.25;;;;;;;16.16;100.00;100564.34;5285263;28;20055;-66
2021/07/31 06:56:22;;;;;;;9.30;5.38;;;;;;;16.15;100.00;100574.09;5286166;28;20063;-65
2021/07/31 06:58:53;;;;;;;8.77;4.90;;;;;;;16.23;100.00;100570.59;5288409;28;20035;-66
2021/07/31 07:01:24;;;;;;;9.00;4.97;;;;;;;16.37;100.00;100569.84;5285507;28;20059;-66
2021/07/31 07:03:56;;;;;;;14.07;5.88;;;;;;;16.50;100.00;100583.31;5284561;28;20028;-66
2021/07/31 07:06:27;;;;;;;5.72;4.07;;;;;;;16.58;100.00;100585.06;5282241;28;20066;-66
2021/07/31 07:08:58;;;;;;;8.20;4.55;;;;;;;16.72;100.00;100583.50;5286813;28;20067;-66
2021/07/31 07:11:29;;;;;;;6.68;4.20;;;;;;;16.83;100.00;100585.75;5286124;28;20032;-66
2021/07/31 07:14:01;;;;;;;6.07;4.00;;;;;;;16.88;100.00;100598.44;5284698;28;20036;-66
2021/07/31 07:16:32;;;;;;;6.57;4.05;;;;;;;16.88;100.00;100591.34;5288122;28;20030;-66
2021/07/31 07:19:03;;;;;;;8.63;4.37;;;;;;;16.89;100.00;100600.09;5282266;28;20028;-66
2021/07/31 07:21:35;;;;;;;7.28;4.30;;;;;;;16.91;100.00;100598.09;5265380;28;20285;-66
2021/07/31 07:24:06;;;;;;;6.43;3.85;;;;;;;16.85;100.00;100612.84;5281583;28;20029;-66
2021/07/31 07:26:37;;;;;;;6.65;3.67;;;;;;;16.92;100.00;100597.09;5283983;28;20124;-66
2021/07/31 07:29:09;;;;;;;6.50;3.70;;;;;;;16.91;100.00;100613.97;5283277;28;20319;-66
2021/07/31 07:31:40;;;;;;;7.50;3.42;;;;;;;16.88;100.00;100617.78;5287794;28;20516;-66
2021/07/31 07:34:11;;;;;;;7.00;4.03;;;;;;;16.89;100.00;100618.63;5283692;28;20032;-66
2021/07/31 07:36:44;;;;;;;7.32;4.03;;;;;;;16.96;100.00;100612.44;5285639;28;20028;-66
2021/07/31 07:39:15;;;;;;;6.22;4.15;;;;;;;16.98;100.00;100618.38;5281288;28;20021;-66
2021/07/31 07:41:46;;;;;;;5.97;4.35;;;;;;;16.97;100.00;100618.53;5280725;28;20024;-66
2021/07/31 07:44:18;;;;;;;7.57;4.13;;;;;;;17.04;100.00;100627.44;5285485;28;20056;-66
2021/07/31 07:46:49;;;;;;;5.80;3.37;;;;;;;17.06;100.00;100625.44;5277734;28;20025;-66
2021/07/31 07:49:20;;;;;;;6.45;3.70;;;;;;;17.19;100.00;100619.53;5279365;28;20286;-66
2021/07/31 07:51:51;;;;;;;6.55;3.83;;;;;;;17.24;100.00;100619.84;5284286;28;20454;-66
2021/07/31 07:54:23;;;;;;;5.30;3.45;;;;;;;17.34;100.00;100630.97;5260938;28;20496;-66
2021/07/31 07:56:54;;;;;;;7.97;4.00;;;;;;;17.43;100.00;100623.81;5284367;28;20422;-66
2021/07/31 07:59:25;;;;;;;5.88;3.65;;;;;;;17.61;100.00;100626.09;5277592;28;21187;-66
2021/07/31 08:01:56;;;;;;;5.15;3.25;;;;;;;17.62;99.62;100628.56;5284052;28;20059;-66
2021/07/31 08:04:32;;;;;;;6.03;3.60;;;;;;;17.72;99.23;100630.94;5274631;28;20035;-66
2021/07/31 08:07:03;;;;;;;5.55;3.17;;;;;;;17.82;99.26;100633.38;5277450;28;20032;-66
2021/07/31 08:09:37;;;;;;;6.53;3.50;;;;;;;17.87;98.87;100631.78;5276898;28;20504;-67
2021/07/31 08:12:08;;;;;;;7.70;3.40;;;;;;;18.11;98.32;100633.34;5282246;28;20481;-67
2021/07/31 08:14:40;;;;;;;6.13;2.55;;;;;;;18.29;96.06;100629.47;5287228;28;20115;-67
2021/07/31 08:17:11;;;;;;;4.72;3.13;;;;;;;18.59;96.22;100630.22;5282916;28;20031;-66
2021/07/31 08:19:42;;;;;;;4.95;2.53;;;;;;;18.63;92.77;100631.50;5279906;28;20498;-67
2021/07/31 08:22:14;;;;;;;4.87;2.50;;;;;;;18.50;90.65;100631.38;5282106;28;20446;-67
2021/07/31 08:24:46;;;;;;;6.13;2.40;;;;;;;18.47;91.91;100627.25;5282897;28;20432;-66
2021/07/31 08:27:18;;;;;;;4.13;2.30;;;;;;;18.43;92.41;100636.59;5279642;28;20040;-66
2021/07/31 08:29:50;;;;;;;7.03;3.38;;;;;;;18.46;92.51;100628.25;5276170;28;20020;-66
2021/07/31 08:32:21;;;;;;;2.90;1.93;;;;;;;18.46;91.44;100631.72;5284037;28;21061;-66
2021/07/31 08:34:52;;;;;;;4.35;2.45;;;;;;;18.57;91.56;100634.91;5283208;28;20024;-66
2021/07/31 08:37:24;;;;;;;4.83;2.37;;;;;;;18.60;91.70;100632.72;5281201;28;20024;-66
2021/07/31 08:39:55;;;;;;;6.25;2.70;;;;;;;18.55;91.51;100640.41;5283634;28;20032;-66
2021/07/31 08:42:26;;;;;;;5.28;2.78;;;;;;;18.45;90.99;100638.06;5282559;28;20578;-66
2021/07/31 08:44:57;;;;;;;3.97;2.33;;;;;;;18.42;90.91;100632.31;5282534;28;20028;-66
2021/07/31 08:47:30;;;;;;;6.70;2.40;;;;;;;18.32;89.63;100634.41;5281947;28;20020;-66
2021/07/31 08:50:02;;;;;;;3.60;2.33;;;;;;;18.27;91.10;100644.78;5282268;28;20032;-66
2021/07/31 08:52:35;;;;;;;5.35;2.28;;;;;;;18.19;91.13;100640.38;5282063;28;20154;-67
2021/07/31 08:55:07;;;;;;;5.60;2.42;;;;;;;18.15;91.60;100636.47;5284677;28;20428;-66
2021/07/31 08:57:39;;;;;;;3.83;2.53;;;;;;;18.07;91.72;100647.16;5282868;28;20457;-66
2021/07/31 09:00:10;;;;;;;4.05;2.40;;;;;;;18.04;92.66;100661.59;5282020;28;20056;-66
2021/07/31 09:02:47;;;;;;;7.90;3.03;;;;;;;18.01;90.65;100654.00;5278752;28;20025;-66
2021/07/31 09:05:30;;;;;;;5.40;3.20;;;;;;;18.06;91.11;100654.28;5276282;28;20428;-66
2021/07/31 09:08:02;;;;;;;5.80;2.97;;;;;;;17.97;92.24;100656.22;5280641;28;20264;-66
2021/07/31 09:10:41;;;;;;;5.57;2.97;;;;;;;18.06;92.23;100661.41;5281735;28;20700;-66
2021/07/31 09:13:18;;;;;;;4.10;3.13;;;;;;;18.11;92.48;100669.66;5276433;28;20039;-66
2021/07/31 09:15:52;;;;;;;4.07;2.78;;;;;;;18.15;92.58;100663.78;5270717;28;20028;-66
2021/07/31 09:18:34;;;;;;;5.85;3.20;;;;;;;18.27;91.82;100666.81;5277767;28;20031;-66
2021/07/31 09:21:14;;;;;;;5.03;3.22;;;;;;;18.40;92.56;100672.25;5282505;28;20044;-66
2021/07/31 09:23:47;;;;;;;4.93;2.97;;;;;;;18.49;90.94;100678.31;5276713;28;20481;-66
2021/07/31 09:26:30;;;;;;;5.63;3.55;;;;;;;18.65;91.09;100679.91;5277536;28;20177;-66
2021/07/31 09:29:10;;;;;;;4.97;3.60;;;;;;;18.68;88.93;100680.34;5281197;28;20036;-66
2021/07/31 09:31:49;;;;;;;4.55;3.88;;;;;;;18.64;88.78;100686.22;5281998;28;20408;-66
2021/07/31 09:34:34;;;;;;;5.43;4.10;;;;;;;18.57;89.52;100678.19;5280792;28;20085;-65
2021/07/31 09:37:17;;;;;;;4.68;4.28;;;;;;;18.65;89.92;100682.56;5278951;28;20028;-65
2021/07/31 09:39:53;;;;;;;4.72;4.00;;;;;;;18.46;89.43;100691.94;5275096;28;20056;-65
2021/07/31 09:42:29;;;;;;;9.40;4.90;;;;;;;18.43;89.37;100694.94;5278322;28;20039;-65
2021/07/31 09:45:02;;;;;;;4.72;3.83;;;;;;;18.32;90.33;100703.38;5272037;28;20091;-65
2021/07/31 09:47:35;;;;;;;4.95;3.83;;;;;;;18.30;91.18;100708.06;5253507;28;20052;-65
2021/07/31 09:50:07;;;;;;;7.53;5.18;;;;;;;18.22;93.81;100703.63;5274266;28;20077;-65
2021/07/31 09:52:38;;;;;;;6.20;4.78;;;;;;;18.28;93.31;100705.56;5273932;28;20023;-65
2021/07/31 09:55:09;;;;;;;5.93;5.18;;;;;;;18.31;93.27;100699.91;5281430;28;20039;-66
2021/07/31 09:57:42;;;;;;;5.63;5.03;;;;;;;18.27;93.03;100711.06;5275871;28;20458;-65
2021/07/31 10:00:14;;;;;;;5.88;4.55;;;;;;;18.27;93.81;100706.59;5281682;28;20498;-65
2021/07/31 10:02:45;;;;;;;7.57;5.37;;;;;;;18.30;93.67;100716.00;5283376;28;20035;-65
2021/07/31 10:05:18;;;;;;;7.17;5.40;;;;;;;18.25;95.17;100719.19;5281272;28;20038;-65
2021/07/31 10:07:49;;;;;;;6.40;5.80;;;;;;;18.27;94.75;100722.50;5280563;28;20024;-65
2021/07/31 10:10:20;;;;;;;6.20;5.50;;;;;;;18.10;95.16;100715.72;5283702;28;20034;-66
2021/07/31 10:12:54;;;;;;;5.93;5.33;;;;;;;18.10;95.95;100719.19;5279067;28;20716;-67
2021/07/31 10:15:25;;;;;;;6.28;5.68;;;;;;;18.12;96.77;100719.03;5281304;28;20032;-65
2021/07/31 10:17:58;;;;;;;6.73;5.10;;;;;;;18.24;96.58;100730.81;5281456;28;20039;-65
2021/07/31 10:20:30;;;;;;;7.05;5.65;;;;;;;18.08;96.13;100747.72;5281728;28;20051;-65
2021/07/31 10:23:01;;;;;;;6.57;5.32;;;;;;;17.94;99.69;100757.28;5261515;28;20048;-65
2021/07/31 10:25:32;;;;;;;8.55;5.88;;;;;;;17.80;100.00;100755.44;5258676;28;20433;-65
2021/07/31 10:28:25;;;;;;;7.07;6.37;;;;;;;17.75;100.00;100755.97;5259188;28;20039;-65
2021/07/31 10:31:32;;;;;;;6.38;5.75;;;;;;;17.67;100.00;100761.31;5250532;28;20350;-66
2021/07/31 10:34:03;;;;;;;7.10;6.40;;;;;;;17.64;100.00;100756.38;5260310;28;20028;-67
2021/07/31 10:36:36;;;;;;;6.75;5.80;;;;;;;17.82;100.00;100761.38;5263507;28;20028;-67
2021/07/31 10:39:25;;;;;;;7.60;5.97;;;;;;;17.98;100.00;100760.41;5264566;28;20055;-67
2021/07/31 10:42:02;;;;;;;6.70;6.10;;;;;;;18.08;100.00;100753.03;5262493;28;20050;-67
2021/07/31 10:44:34;;;;;;;6.15;5.55;;;;;;;18.07;100.00;100756.69;5265501;28;20552;-67
2021/07/31 10:47:20;;;;;;;6.80;6.13;;;;;;;18.48;100.00;100756.22;5266645;28;20036;-67
2021/07/31 10:49:51;;;;;;;8.32;6.07;;;;;;;18.69;100.00;100761.59;5267199;28;20054;-67
2021/07/31 10:52:53;;;;;;;7.20;5.45;;;;;;;18.93;100.00;100757.00;5264423;28;20025;-67
2021/07/31 10:55:26;;;;;;;5.85;5.25;;;;;;;19.12;100.00;100758.25;5267567;28;20040;-68
2021/07/31 10:57:57;;;;;;;;;;;;;;;19.43;100.00;100769.41;5245812;28;20256;-66
2021/07/31 11:00:29;;;;;;;5.18;4.20;;;;;;;19.38;98.90;100765.66;5264244;28;19920;-67
2021/07/31 11:03:05;;;;;;;6.43;4.80;;;;;;;19.57;97.56;100758.88;5274299;28;20420;-69
2021/07/31 11:05:51;;;;;;;6.18;4.80;;;;;;;20.00;96.89;100757.03;5283915;28;20106;-65
2021/07/31 11:08:25;;;;;;;5.68;5.07;;;;;;;20.13;94.26;100753.63;5285132;28;20032;-69
2021/07/31 11:10:57;;;;;;;5.53;4.70;;;;;;;20.04;90.75;100754.78;5281588;28;20112;-67
2021/07/31 11:13:28;;;;;;;6.83;4.80;;;;;;;20.03;90.66;100761.13;5287422;28;20118;-67
2021/07/31 11:16:20;;;;;;;5.07;4.10;;;;;;;20.34;92.19;100756.22;5276367;28;20036;-69
2021/07/31 11:18:58;;;;;;;5.15;4.72;;;;;;;20.05;89.93;100762.56;5281665;28;20581;-67
2021/07/31 11:21:33;;;;;;;4.90;4.40;;;;;;;20.08;90.11;100758.72;5284178;28;20047;-67
2021/07/31 11:24:07;;;;;;;5.03;4.22;;;;;;;20.20;88.97;100759.00;5281872;28;20075;-67
2021/07/31 11:26:47;;;;;;;5.65;4.35;;;;;;;20.37;89.63;100753.13;5287669;28;20028;-67
2021/07/31 11:29:23;;;;;;;4.72;4.25;;;;;;;20.59;87.72;100761.88;5283126;28;20117;-67
2021/07/31 11:32:03;;;;;;;6.22;4.70;;;;;;;20.68;86.28;100765.19;5284109;28;20477;-67
2021/07/31 11:34:46;;;;;;;6.45;4.28;;;;;;;20.69;84.64;100750.06;5283197;28;20547;-67
2021/07/31 11:37:17;;;;;;;3.97;3.58;;;;;;;20.67;85.93;100752.09;5280944;28;20040;-67
2021/07/31 11:39:49;;;;;;;6.83;4.13;;;;;;;20.60;85.91;100755.53;5283669;28;20048;-67
2021/07/31 11:42:21;;;;;;;5.30;4.80;;;;;;;20.47;86.79;100752.78;5281547;28;20027;-67
2021/07/31 11:45:02;;;;;;;8.05;4.90;;;;;;;20.47;88.04;100759.97;5281154;28;20470;-67